createdAt,value
2023-04-24T00:00:49.360Z,3.50
2023-04-24T00:03:17.713Z,3.20
2023-04-24T00:05:45.148Z,3.60
2023-04-24T00:08:12.799Z,2.90
2023-04-24T00:10:42.174Z,3.03
2023-04-24T00:13:10.101Z,2.75
2023-04-24T00:15:37.577Z,2.53
2023-04-24T00:18:06.394Z,2.53
2023-04-24T00:20:34.605Z,2.78
2023-04-24T00:23:01.949Z,2.60
2023-04-24T00:25:29.314Z,3.10
2023-04-24T00:27:56.555Z,2.60
2023-04-24T00:30:23.995Z,2.67
2023-04-24T00:32:51.705Z,2.40
2023-04-24T00:35:21.209Z,2.53
2023-04-24T00:37:49.473Z,2.45
2023-04-24T00:40:16.908Z,2.50
2023-04-24T00:42:44.849Z,2.70
2023-04-24T00:45:14.256Z,3.10
2023-04-24T00:47:43.213Z,2.45
2023-04-24T00:50:12.504Z,2.70
2023-04-24T00:52:41.900Z,2.53
2023-04-24T00:55:10.040Z,3.17
2023-04-24T00:57:38.928Z,2.88
2023-04-24T01:00:13.082Z,2.90
2023-04-24T01:02:46.614Z,2.83
2023-04-24T01:05:17.063Z,2.60
2023-04-24T01:07:46.745Z,2.67
2023-04-24T01:10:15.785Z,2.33
2023-04-24T01:12:43.190Z,2.60
2023-04-24T01:15:13.577Z,2.13
2023-04-24T01:17:44.716Z,2.10
2023-04-24T01:20:13.667Z,1.98
2023-04-24T01:22:42.710Z,2.15
2023-04-24T01:25:11.626Z,2.10
2023-04-24T01:27:40.365Z,2.22
2023-04-24T01:30:09.559Z,1.80
2023-04-24T01:32:39.463Z,1.83
2023-04-24T01:35:07.956Z,1.90
2023-04-24T01:37:35.893Z,1.90
2023-04-24T01:40:08.561Z,2.15
2023-04-24T01:42:36.421Z,1.88
2023-04-24T01:45:05.730Z,1.90
2023-04-24T01:47:33.846Z,2.00
2023-04-24T01:50:01.256Z,2.10
2023-04-24T01:52:32.268Z,2.00
2023-04-24T01:55:01.815Z,1.50
2023-04-24T01:57:31.627Z,1.73
2023-04-24T01:59:59.210Z,1.60
2023-04-24T02:02:28.765Z,1.80
2023-04-24T02:04:59.479Z,1.55
2023-04-24T02:07:27.295Z,1.80
2023-04-24T02:09:54.715Z,1.88
2023-04-24T02:12:23.851Z,2.28
2023-04-24T02:14:52.590Z,1.52
2023-04-24T02:17:20.360Z,1.70
2023-04-24T02:19:47.711Z,1.75
2023-04-24T02:22:15.077Z,1.63
2023-04-24T02:24:42.343Z,1.70
2023-04-24T02:27:10.177Z,1.40
2023-04-24T02:29:37.458Z,1.67
2023-04-24T02:32:06.152Z,1.60
2023-04-24T02:34:34.855Z,1.50
2023-04-24T02:37:02.136Z,1.60
2023-04-24T02:39:29.376Z,1.73
2023-04-24T02:41:56.827Z,1.85
2023-04-24T02:44:24.328Z,1.88
2023-04-24T02:46:52.090Z,1.90
2023-04-24T02:49:19.481Z,1.95
2023-04-24T02:51:46.910Z,1.70
2023-04-24T02:54:14.598Z,1.98
2023-04-24T02:56:42.038Z,2.10
2023-04-24T02:59:10.345Z,1.83
2023-04-24T03:01:38.091Z,1.67
2023-04-24T03:04:06.024Z,2.00
2023-04-24T03:06:34.126Z,1.80
2023-04-24T03:09:01.382Z,1.83
2023-04-24T03:11:28.694Z,1.80
2023-04-24T03:13:56.664Z,2.08
2023-04-24T03:16:24.004Z,1.80
2023-04-24T03:18:51.396Z,1.70
2023-04-24T03:21:21.732Z,1.95
2023-04-24T03:23:49.600Z,1.70
2023-04-24T03:26:16.952Z,1.92
2023-04-24T03:28:57.502Z,2.13
2023-04-24T03:31:26.026Z,2.20
2023-04-24T03:33:53.464Z,2.00
2023-04-24T03:36:21.595Z,1.90
2023-04-24T03:38:48.949Z,1.95
2023-04-24T03:41:35.693Z,2.00
2023-04-24T03:44:27.171Z,2.15
2023-04-24T03:46:56.326Z,1.70
2023-04-24T03:49:26.186Z,1.88
2023-04-24T03:51:53.854Z,1.98
2023-04-24T03:54:24.442Z,2.03
2023-04-24T03:56:53.327Z,1.83
2023-04-24T03:59:40.761Z,1.92
2023-04-24T04:02:16.952Z,2.15
2023-04-24T04:04:44.611Z,2.28
2023-04-24T04:07:14.234Z,2.20
2023-04-24T04:09:41.871Z,2.30
2023-04-24T04:12:09.506Z,2.50
2023-04-24T04:14:39.398Z,2.08
2023-04-24T04:17:06.773Z,2.60
2023-04-24T04:19:34.585Z,2.67
2023-04-24T04:22:01.830Z,2.55
2023-04-24T04:24:44.146Z,2.43
2023-04-24T04:27:12.295Z,2.75
2023-04-24T04:30:05.787Z,2.80
2023-04-24T04:32:41.449Z,2.67
2023-04-24T04:35:10.541Z,3.83
2023-04-24T04:37:38.252Z,5.05
2023-04-24T04:40:34.820Z,5.20
2023-04-24T04:43:07.481Z,4.63
2023-04-24T04:45:44.091Z,5.03
2023-04-24T04:48:34.944Z,5.72
2023-04-24T04:51:03.955Z,4.60
2023-04-24T04:53:32.001Z,4.90
2023-04-24T04:56:00.966Z,4.10
2023-04-24T04:58:35.129Z,3.85
2023-04-24T05:01:03.685Z,3.70
2023-04-24T05:03:35.358Z,3.70
2023-04-24T05:06:09.423Z,3.30
2023-04-24T05:08:39.123Z,3.40
2023-04-24T05:11:09.875Z,3.20
2023-04-24T05:13:40.954Z,3.25
2023-04-24T05:16:19.618Z,3.67
2023-04-24T05:18:49.974Z,3.20
2023-04-24T05:21:23.603Z,2.95
2023-04-24T05:23:53.056Z,3.10
2023-04-24T05:26:40.549Z,3.20
2023-04-24T05:29:09.296Z,2.60
2023-04-24T05:31:36.587Z,3.28
2023-04-24T05:34:04.467Z,3.05
2023-04-24T05:36:32.572Z,3.10
2023-04-24T05:39:00.067Z,3.13
2023-04-24T05:41:28.639Z,3.50
2023-04-24T05:43:56.064Z,2.90
2023-04-24T05:46:24.530Z,3.50
2023-04-24T05:48:52.025Z,2.88
2023-04-24T05:51:19.957Z,2.95
2023-04-24T05:53:47.468Z,3.20
2023-04-24T05:56:15.407Z,3.17
2023-04-24T05:58:42.951Z,2.83
2023-04-24T06:01:11.499Z,3.45
2023-04-24T06:03:40.833Z,3.30
2023-04-24T06:06:08.976Z,3.30
2023-04-24T06:08:37.225Z,2.47
2023-04-24T06:11:06.093Z,2.75
2023-04-24T06:13:34.014Z,2.85
2023-04-24T06:16:34.613Z,2.60
2023-04-24T06:19:07.665Z,2.95
2023-04-24T06:21:35.167Z,3.10
2023-04-24T06:24:02.780Z,2.85
2023-04-24T06:26:30.059Z,2.67
2023-04-24T06:28:57.510Z,2.75
2023-04-24T06:31:27.512Z,2.63
2023-04-24T06:33:55.313Z,2.78
2023-04-24T06:36:22.842Z,2.85
2023-04-24T06:38:50.087Z,2.45
2023-04-24T06:41:17.364Z,3.22
2023-04-24T06:43:44.856Z,2.08
2023-04-24T06:46:13.394Z,2.33
2023-04-24T06:48:41.503Z,1.92
2023-04-24T06:51:08.960Z,1.90
2023-04-24T06:53:36.274Z,1.70
2023-04-24T06:56:03.670Z,1.80
2023-04-24T06:58:32.121Z,1.83
2023-04-24T07:00:59.452Z,1.60
2023-04-24T07:03:27.001Z,1.90
2023-04-24T07:05:55.868Z,1.88
2023-04-24T07:08:24.077Z,1.70
2023-04-24T07:10:53.347Z,1.80
2023-04-24T07:13:20.698Z,1.88
2023-04-24T07:15:50.277Z,3.92
2023-04-24T07:18:18.108Z,1.92
2023-04-24T07:20:46.063Z,2.10
2023-04-24T07:23:13.354Z,1.65
2023-04-24T07:25:41.756Z,2.10
2023-04-24T07:28:09.616Z,2.08
2023-04-24T07:30:36.895Z,1.90
2023-04-24T07:33:04.240Z,1.95
2023-04-24T07:35:31.675Z,2.28
2023-04-24T07:37:58.979Z,2.40
2023-04-24T07:40:26.422Z,2.30
2023-04-24T07:42:54.530Z,2.70
2023-04-24T07:45:21.936Z,2.58
2023-04-24T07:47:49.677Z,2.60
2023-04-24T07:50:17.242Z,2.75
2023-04-24T07:52:44.553Z,2.78
2023-04-24T07:55:12.330Z,3.00
2023-04-24T07:57:39.663Z,3.00
2023-04-24T08:00:08.448Z,2.97
2023-04-24T08:02:39.353Z,2.90
2023-04-24T08:05:07.661Z,2.80
2023-04-24T08:07:36.665Z,3.10
2023-04-24T08:10:04.489Z,2.97
2023-04-24T08:12:31.940Z,3.20
2023-04-24T08:14:59.703Z,3.22
2023-04-24T08:17:28.052Z,3.00
2023-04-24T08:20:02.506Z,3.42
2023-04-24T08:22:31.964Z,3.17
2023-04-24T08:25:01.580Z,3.22
2023-04-24T08:27:29.103Z,3.33
2023-04-24T08:29:56.541Z,3.30
2023-04-24T08:32:24.030Z,4.13
2023-04-24T08:34:53.936Z,3.70
2023-04-24T08:37:22.818Z,3.50
2023-04-24T08:39:51.090Z,3.85
2023-04-24T08:42:22.564Z,3.90
2023-04-24T08:44:51.490Z,3.90
2023-04-24T08:47:21.605Z,3.58
2023-04-24T08:49:50.793Z,3.42
2023-04-24T08:52:19.965Z,3.83
2023-04-24T08:54:48.227Z,3.58
2023-04-24T08:57:16.447Z,3.60
2023-04-24T08:59:46.115Z,4.05
2023-04-24T09:02:14.731Z,3.70
2023-04-24T09:04:42.619Z,3.80
2023-04-24T09:07:13.385Z,3.75
2023-04-24T09:09:43.067Z,4.03
2023-04-24T09:12:11.670Z,4.10
2023-04-24T09:14:46.185Z,4.13
2023-04-24T09:17:13.955Z,4.00
2023-04-24T09:19:43.732Z,4.22
2023-04-24T09:22:12.434Z,4.35
2023-04-24T09:24:41.109Z,4.22
2023-04-24T09:27:10.706Z,4.13
2023-04-24T09:29:39.092Z,4.20
2023-04-24T09:32:22.978Z,3.80
2023-04-24T09:34:50.756Z,3.70
2023-04-24T09:37:30.292Z,3.95
2023-04-24T09:40:20.481Z,3.80
2023-04-24T09:43:02.492Z,3.95
2023-04-24T09:45:40.608Z,3.38
2023-04-24T09:48:12.316Z,3.38
2023-04-24T09:50:39.659Z,3.72
2023-04-24T09:53:11.931Z,3.10
2023-04-24T09:55:49.353Z,2.78
2023-04-24T09:58:16.784Z,3.25
2023-04-24T10:00:44.113Z,3.45
2023-04-24T10:03:12.603Z,3.47
2023-04-24T10:05:40.654Z,3.63
2023-04-24T10:08:10.324Z,3.50
2023-04-24T10:10:49.821Z,3.65
2023-04-24T10:13:17.245Z,3.92
2023-04-24T10:15:45.401Z,3.10
2023-04-24T10:18:13.665Z,3.28
2023-04-24T10:20:41.999Z,3.35
2023-04-24T10:23:13.311Z,3.20
2023-04-24T10:25:40.977Z,3.40
2023-04-24T10:28:11.071Z,3.35
2023-04-24T10:30:43.775Z,3.10
2023-04-24T10:33:11.484Z,3.65
2023-04-24T10:35:43.487Z,3.10
2023-04-24T10:40:41.170Z,3.55
2023-04-24T10:43:12.417Z,3.15
2023-04-24T10:45:40.539Z,3.13
2023-04-24T10:48:15.158Z,3.42
2023-04-24T10:50:46.946Z,2.90
2023-04-24T10:53:19.886Z,3.03
2023-04-24T10:55:48.610Z,3.00
2023-04-24T10:58:18.016Z,3.15
2023-04-24T11:00:56.171Z,2.80
2023-04-24T11:03:30.222Z,2.88
2023-04-24T11:06:05.982Z,3.15
2023-04-24T11:08:40.674Z,3.22
2023-04-24T11:11:17.669Z,3.58
2023-04-24T11:13:58.110Z,3.20
2023-04-24T11:16:33.884Z,3.30
2023-04-24T11:19:17.972Z,3.20
2023-04-24T11:21:49.401Z,3.53
2023-04-24T11:24:30.174Z,3.70
2023-04-24T11:27:05.378Z,3.50
2023-04-24T11:29:48.806Z,3.63
2023-04-24T11:32:21.129Z,3.63
2023-04-24T11:34:50.188Z,3.80
2023-04-24T11:37:18.353Z,3.47
2023-04-24T11:39:45.759Z,3.83
2023-04-24T11:42:17.782Z,3.80
2023-04-24T11:44:45.245Z,3.90
2023-04-24T11:47:12.492Z,4.35
2023-04-24T11:49:41.257Z,4.03
2023-04-24T11:52:08.669Z,3.63
2023-04-24T11:54:36.032Z,4.60
2023-04-24T11:57:07.118Z,4.07
2023-04-24T11:59:39.043Z,3.90
2023-04-24T12:02:07.870Z,3.70
2023-04-24T12:04:42.697Z,3.50
2023-04-24T12:07:10.928Z,3.75
2023-04-24T12:09:58.575Z,3.63
2023-04-24T12:12:28.118Z,3.90
2023-04-24T12:14:58.348Z,3.85
2023-04-24T12:17:29.030Z,4.15
2023-04-24T12:20:02.229Z,3.80
2023-04-24T12:22:45.107Z,4.20
2023-04-24T12:25:13.118Z,4.05
2023-04-24T12:27:40.994Z,3.90
2023-04-24T12:30:13.440Z,4.32
2023-04-24T12:32:48.389Z,3.70
2023-04-24T12:35:22.350Z,3.80
2023-04-24T12:37:50.004Z,3.85
2023-04-24T12:40:19.663Z,3.50
2023-04-24T12:42:51.702Z,3.90
2023-04-24T12:45:20.489Z,3.70
2023-04-24T12:47:48.073Z,3.60
2023-04-24T12:50:16.791Z,3.80
2023-04-24T12:52:46.307Z,3.90
2023-04-24T12:55:14.651Z,3.80
2023-04-24T12:57:42.268Z,3.72
2023-04-24T13:00:11.483Z,3.75
2023-04-24T13:02:40.166Z,4.20
2023-04-24T13:05:10.874Z,3.55
2023-04-24T13:07:39.973Z,3.80
2023-04-24T13:10:09.255Z,3.85
2023-04-24T13:12:36.681Z,3.58
2023-04-24T13:15:04.700Z,3.97
2023-04-24T13:17:32.117Z,3.85
2023-04-24T13:19:59.746Z,3.60
2023-04-24T13:22:27.089Z,3.90
2023-04-24T13:24:54.372Z,4.55
2023-04-24T13:27:21.824Z,4.20
2023-04-24T13:29:49.070Z,3.97
2023-04-24T13:32:17.002Z,3.85
2023-04-24T13:34:44.651Z,3.90
2023-04-24T13:37:12.177Z,4.00
2023-04-24T13:39:39.511Z,4.18
2023-04-24T13:42:06.921Z,3.80
2023-04-24T13:44:34.851Z,3.80
2023-04-24T13:47:02.294Z,4.03
2023-04-24T13:49:30.154Z,4.28
2023-04-24T13:51:58.372Z,3.88
2023-04-24T13:54:27.314Z,4.15
2023-04-24T13:56:59.009Z,4.32
2023-04-24T13:59:26.883Z,4.20
2023-04-24T14:01:55.813Z,4.38
2023-04-24T14:04:23.313Z,4.30
2023-04-24T14:06:52.294Z,4.47
2023-04-24T14:09:19.965Z,4.53
2023-04-24T14:11:47.680Z,4.40
2023-04-24T14:14:15.300Z,4.75
2023-04-24T14:16:42.710Z,4.65
2023-04-24T14:19:11.287Z,4.65
2023-04-24T14:21:43.209Z,5.05
2023-04-24T14:24:11.147Z,5.20
2023-04-24T14:26:38.608Z,4.85
2023-04-24T14:29:14.645Z,4.80
2023-04-24T14:31:44.337Z,4.70
2023-04-24T14:34:11.763Z,4.60
2023-04-24T14:36:39.009Z,4.90
2023-04-24T14:39:08.368Z,4.57
2023-04-24T14:41:37.110Z,4.93
2023-04-24T14:44:07.690Z,4.95
2023-04-24T14:46:36.396Z,4.95
2023-04-24T14:49:04.134Z,4.43
2023-04-24T14:51:32.065Z,4.90
2023-04-24T14:54:00.169Z,5.10
2023-04-24T14:56:27.454Z,5.25
2023-04-24T14:58:54.840Z,4.57
2023-04-24T15:01:22.726Z,4.50
2023-04-24T15:03:50.366Z,4.30
2023-04-24T15:06:18.902Z,4.50
2023-04-24T15:08:48.018Z,4.95
2023-04-24T15:11:17.275Z,4.45
2023-04-24T15:13:46.670Z,4.40
2023-04-24T15:16:14.446Z,4.80
2023-04-24T15:18:43.370Z,4.55
2023-04-24T15:21:11.006Z,4.95
2023-04-24T15:23:38.810Z,5.13
2023-04-24T15:26:07.593Z,5.20
2023-04-24T15:28:34.869Z,4.95
2023-04-24T15:31:02.180Z,5.38
2023-04-24T15:33:29.510Z,6.13
2023-04-24T15:35:56.887Z,5.72
2023-04-24T15:38:24.312Z,5.18
2023-04-24T15:40:51.575Z,5.60
2023-04-24T15:43:18.927Z,5.68
2023-04-24T15:45:46.233Z,5.72
2023-04-24T15:48:13.692Z,5.82
2023-04-24T15:50:41.061Z,6.13
2023-04-24T15:53:08.687Z,5.88
2023-04-24T15:55:37.760Z,5.35
2023-04-24T15:58:05.197Z,5.50
2023-04-24T16:00:34.632Z,5.70
2023-04-24T16:03:02.580Z,5.50
2023-04-24T16:05:29.990Z,5.65
2023-04-24T16:07:57.448Z,6.05
2023-04-24T16:10:25.034Z,5.57
2023-04-24T16:12:54.709Z,5.78
2023-04-24T16:15:22.516Z,5.30
2023-04-24T16:17:51.555Z,5.82
2023-04-24T16:20:20.748Z,6.28
2023-04-24T16:22:48.948Z,6.20
2023-04-24T16:25:16.272Z,6.10
2023-04-24T16:27:44.212Z,6.20
2023-04-24T16:30:12.953Z,5.70
2023-04-24T16:32:40.267Z,5.50
2023-04-24T16:35:07.785Z,5.60
2023-04-24T16:37:35.754Z,5.88
2023-04-24T16:40:06.812Z,5.82
2023-04-24T16:42:35.071Z,5.07
2023-04-24T16:45:02.474Z,5.60
2023-04-24T16:47:30.068Z,6.18
2023-04-24T16:49:59.113Z,5.55
2023-04-24T16:52:26.447Z,5.90
2023-04-24T16:54:54.224Z,5.63
2023-04-24T16:57:23.067Z,6.20
2023-04-24T16:59:50.260Z,6.15
2023-04-24T17:02:17.632Z,5.70
2023-04-24T17:04:44.991Z,5.70
2023-04-24T17:07:13.406Z,5.40
2023-04-24T17:09:42.836Z,5.72
2023-04-24T17:12:11.330Z,5.50
2023-04-24T17:14:39.090Z,5.85
2023-04-24T17:17:06.654Z,5.57
2023-04-24T17:19:36.038Z,5.78
2023-04-24T17:22:06.121Z,5.30
2023-04-24T17:24:34.269Z,6.10
2023-04-24T17:27:12.103Z,5.68
2023-04-24T17:29:43.417Z,6.03
2023-04-24T17:32:15.724Z,5.97
2023-04-24T17:34:44.106Z,6.47
2023-04-24T17:37:11.983Z,5.90
2023-04-24T17:39:39.308Z,6.32
2023-04-24T17:42:06.978Z,6.40
2023-04-24T17:44:35.370Z,6.30
2023-04-24T17:47:05.046Z,5.25
2023-04-24T17:49:33.047Z,5.60
2023-04-24T17:52:00.824Z,4.90
2023-04-24T17:54:28.296Z,4.70
2023-04-24T17:56:55.775Z,4.15
2023-04-24T17:59:27.226Z,4.80
2023-04-24T18:01:54.707Z,4.30
2023-04-24T18:04:22.426Z,4.75
2023-04-24T18:06:50.160Z,5.03
2023-04-24T18:09:19.121Z,5.05
2023-04-24T18:11:48.878Z,4.80
2023-04-24T18:14:16.450Z,5.13
2023-04-24T18:16:47.371Z,5.32
2023-04-24T18:19:15.285Z,5.13
2023-04-24T18:21:42.680Z,5.30
2023-04-24T18:24:10.900Z,5.47
2023-04-24T18:26:38.198Z,5.20
2023-04-24T18:29:05.635Z,4.85
2023-04-24T18:31:33.151Z,5.20
2023-04-24T18:34:01.633Z,5.03
2023-04-24T18:36:29.039Z,5.45
2023-04-24T18:38:56.488Z,5.75
2023-04-24T18:41:25.191Z,6.03
2023-04-24T18:43:58.231Z,5.43
2023-04-24T18:46:26.305Z,6.03
2023-04-24T18:48:53.850Z,5.65
2023-04-24T18:51:22.633Z,5.68
2023-04-24T18:53:50.184Z,5.40
2023-04-24T18:56:18.061Z,5.65
2023-04-24T18:58:46.556Z,5.32
2023-04-24T19:01:14.449Z,5.72
2023-04-24T19:03:41.935Z,5.68
2023-04-24T19:06:09.411Z,5.43
2023-04-24T19:08:38.671Z,6.80
2023-04-24T19:11:06.415Z,5.82
2023-04-24T19:13:33.922Z,5.95
2023-04-24T19:16:02.169Z,5.95
2023-04-24T19:18:29.753Z,5.20
2023-04-24T19:20:59.001Z,5.15
2023-04-24T19:23:27.232Z,5.40
2023-04-24T19:25:54.839Z,5.60
2023-04-24T19:28:23.440Z,5.28
2023-04-24T19:30:50.822Z,6.13
2023-04-24T19:33:18.273Z,5.70
2023-04-24T19:35:46.691Z,5.97
2023-04-24T19:38:14.209Z,5.90
2023-04-24T19:40:43.378Z,5.65
2023-04-24T19:43:10.823Z,5.82
2023-04-24T19:45:38.367Z,6.13
2023-04-24T19:48:06.023Z,5.70
2023-04-24T19:50:33.488Z,6.03
2023-04-24T19:53:01.410Z,5.65
2023-04-24T19:55:29.448Z,5.88
2023-04-24T19:57:57.002Z,5.65
2023-04-24T20:00:24.425Z,6.45
2023-04-24T20:02:54.412Z,6.55
2023-04-24T20:05:21.886Z,6.07
2023-04-24T20:07:51.323Z,6.35
2023-04-24T20:10:18.869Z,5.57
2023-04-24T20:12:46.293Z,6.03
2023-04-24T20:15:13.797Z,5.85
2023-04-24T20:17:41.372Z,5.80
2023-04-24T20:20:09.879Z,8.30
2023-04-24T20:22:40.494Z,5.50
2023-04-24T20:25:10.050Z,5.70
2023-04-24T20:27:38.283Z,5.55
2023-04-24T20:30:06.939Z,6.38
2023-04-24T20:32:34.273Z,5.88
2023-04-24T20:35:02.446Z,6.28
2023-04-24T20:37:29.654Z,5.70
2023-04-24T20:39:57.371Z,5.75
2023-04-24T20:42:25.162Z,6.03
2023-04-24T20:44:53.797Z,6.25
2023-04-24T20:47:21.186Z,6.45
2023-04-24T20:49:51.602Z,6.95
2023-04-24T20:52:18.946Z,5.50
2023-04-24T20:54:46.924Z,5.97
2023-04-24T20:57:15.141Z,6.32
2023-04-24T20:59:42.791Z,6.00
2023-04-24T21:02:10.291Z,5.75
2023-04-24T21:04:39.875Z,6.40
2023-04-24T21:07:07.874Z,5.53
2023-04-24T21:09:35.093Z,6.22
2023-04-24T21:12:03.055Z,5.10
2023-04-24T21:14:30.402Z,5.85
2023-04-24T21:17:00.480Z,5.75
2023-04-24T21:19:27.856Z,5.20
2023-04-24T21:21:55.113Z,5.70
2023-04-24T21:24:23.041Z,5.60
2023-04-24T21:26:50.832Z,5.38
2023-04-24T21:29:18.554Z,5.55
2023-04-24T21:31:46.112Z,5.50
2023-04-24T21:34:13.767Z,5.72
2023-04-24T21:36:41.225Z,5.45
2023-04-24T21:39:08.556Z,5.70
2023-04-24T21:41:35.970Z,5.63
2023-04-24T21:44:03.348Z,5.75
2023-04-24T21:46:31.428Z,5.65
2023-04-24T21:48:58.713Z,5.10
2023-04-24T21:51:26.154Z,5.63
2023-04-24T21:53:53.484Z,5.30
2023-04-24T21:56:21.180Z,4.60
2023-04-24T21:58:48.567Z,5.18
2023-04-24T22:01:16.074Z,5.18
2023-04-24T22:03:43.544Z,5.30
2023-04-24T22:06:12.056Z,5.00
2023-04-24T22:08:39.406Z,5.32
2023-04-24T22:11:13.493Z,4.72
2023-04-24T22:13:48.097Z,5.35
2023-04-24T22:16:16.318Z,5.72
2023-04-24T22:18:47.383Z,5.15
2023-04-24T22:21:16.802Z,5.28
2023-04-24T22:23:44.100Z,4.72
2023-04-24T22:26:11.440Z,4.90
2023-04-24T22:28:38.862Z,5.53
2023-04-24T22:31:06.251Z,5.05
2023-04-24T22:33:33.621Z,4.93
2023-04-24T22:36:01.557Z,4.70
2023-04-24T22:38:28.950Z,5.28
2023-04-24T22:40:56.283Z,4.95
2023-04-24T22:43:24.744Z,4.70
2023-04-24T22:45:52.123Z,4.50
2023-04-24T22:48:19.369Z,5.57
2023-04-24T22:50:46.937Z,4.88
2023-04-24T22:53:14.277Z,5.15
2023-04-24T22:55:41.704Z,4.85
2023-04-24T22:58:09.142Z,4.78
2023-04-24T23:00:36.603Z,5.35
2023-04-24T23:03:04.285Z,5.60
2023-04-24T23:05:32.805Z,4.95
2023-04-24T23:08:00.214Z,5.15
2023-04-24T23:10:27.667Z,5.45
2023-04-24T23:12:55.021Z,5.60
2023-04-24T23:15:22.582Z,5.72
2023-04-24T23:17:50.081Z,5.40
2023-04-24T23:20:17.573Z,5.47
2023-04-24T23:22:44.853Z,6.30
2023-04-24T23:25:12.591Z,6.10
2023-04-24T23:27:40.591Z,5.60
2023-04-24T23:30:08.608Z,5.95
2023-04-24T23:32:35.924Z,5.80
2023-04-24T23:35:03.357Z,5.82
2023-04-24T23:37:30.926Z,5.88
2023-04-24T23:39:58.225Z,5.55
2023-04-24T23:42:25.772Z,5.88
2023-04-24T23:44:53.645Z,6.38
2023-04-24T23:47:21.080Z,6.03
2023-04-24T23:49:48.492Z,5.57
2023-04-24T23:52:15.853Z,5.40
2023-04-24T23:54:43.580Z,6.00
2023-04-24T23:57:11.089Z,6.38
2023-04-24T23:59:38.627Z,5.63
